Time;durP1;ratioP1;P1;durP2;ratioP2;P2;SDS_P1;SDS_P2;PMS_P1;PMS_P2;Temp;Humidity;BMP_temperature;BMP_pressure;BME280_temperature;BME280_humidity;BME280_pressure;Samples;Min_cycle;Max_cycle;Signal;HPM_P1;HPM_P2
2023/04/25 00:03:24;;;;;;;2.80;2.60;;;;;;;13.50;49.75;97186.03;8281465;28;20291;-69
2023/04/25 00:07:28;;;;;;;2.80;2.60;;;;;;;13.45;49.69;97165.53;8280534;28;20350;-69
2023/04/25 00:11:32;;;;;;;2.80;2.60;;;;;;;13.33;50.68;97184.59;8280861;28;20372;-68
2023/04/25 00:15:35;;;;;;;2.70;2.50;;;;;;;13.13;51.21;97175.47;8281132;28;20228;-69
2023/04/25 00:19:38;;;;;;;3.17;2.90;;;;;;;13.19;50.28;97184.63;8281502;28;20254;-68
2023/04/25 00:23:41;;;;;;;2.93;2.73;;;;;;;13.13;50.86;97175.47;8281318;28;20229;-68
2023/04/25 00:27:45;;;;;;;2.70;2.50;;;;;;;13.13;51.03;97185.06;8280864;28;20247;-69
2023/04/25 00:31:48;;;;;;;2.70;2.50;;;;;;;13.35;50.01;97179.28;8280524;28;20239;-69
2023/04/25 00:35:50;;;;;;;2.83;2.63;;;;;;;13.12;50.61;97186.84;8280129;28;20235;-69
2023/04/25 00:39:55;;;;;;;2.63;2.50;;;;;;;13.20;50.52;97181.13;8279690;28;20250;-69
2023/04/25 00:44:00;;;;;;;2.87;2.67;;;;;;;13.07;50.31;97152.50;8279498;28;20238;-69
2023/04/25 00:48:03;;;;;;;2.70;2.50;;;;;;;13.28;49.82;97168.41;8279231;28;20232;-69
2023/04/25 00:52:06;;;;;;;2.63;2.50;;;;;;;13.10;50.43;97165.31;8279500;28;20570;-69
2023/04/25 00:56:09;;;;;;;3.00;2.80;;;;;;;13.14;50.33;97165.94;8278568;28;20223;-69
2023/04/25 01:00:15;;;;;;;2.63;2.43;;;;;;;12.87;50.29;97146.88;8279639;28;20230;-69
2023/04/25 01:04:17;;;;;;;3.13;2.90;;;;;;;13.23;50.33;97162.69;8279032;28;20231;-70
2023/04/25 01:08:22;;;;;;;2.40;2.30;;;;;;;13.27;50.43;97159.78;8278928;28;20235;-69
2023/04/25 01:12:25;;;;;;;3.23;2.57;;;;;;;13.23;50.86;97168.75;8278841;28;20230;-69
2023/04/25 01:16:29;;;;;;;2.90;2.70;;;;;;;13.25;50.51;97160.81;8279303;28;20425;-68
2023/04/25 01:20:33;;;;;;;2.77;2.60;;;;;;;13.25;50.25;97164.28;8279320;28;20309;-69
2023/04/25 01:24:38;;;;;;;3.50;3.20;;;;;;;13.22;50.57;97167.06;8278741;28;20329;-69
2023/04/25 01:28:41;;;;;;;5.23;2.90;;;;;;;13.43;50.29;97171.78;8278660;28;20247;-68
2023/04/25 01:32:45;;;;;;;2.93;2.73;;;;;;;13.30;50.54;97154.41;8278930;28;20231;-68
2023/04/25 01:36:50;;;;;;;3.43;3.20;;;;;;;13.35;50.85;97174.09;8278369;28;20295;-68
2023/04/25 01:40:55;;;;;;;2.80;2.60;;;;;;;13.39;50.94;97165.13;8278744;28;20334;-68
2023/04/25 01:44:57;;;;;;;2.93;2.70;;;;;;;13.47;50.59;97160.22;8278650;28;20234;-68
2023/04/25 01:49:00;;;;;;;3.57;3.27;;;;;;;13.32;50.65;97149.09;8278590;28;20238;-68
2023/04/25 01:53:03;;;;;;;2.83;2.63;;;;;;;13.46;50.63;97163.75;8278888;28;20527;-69
2023/04/25 01:57:07;;;;;;;2.73;2.30;;;;;;;13.45;50.37;97160.31;8278635;28;20235;-69
2023/04/25 02:01:10;;;;;;;3.90;2.80;;;;;;;13.46;50.28;97161.16;8278563;28;20238;-69
2023/04/25 02:05:15;;;;;;;3.27;3.00;;;;;;;13.14;50.71;97163.34;8278182;28;20238;-69
2023/04/25 02:09:22;;;;;;;3.07;2.87;;;;;;;13.15;50.62;97160.59;8282916;28;20465;-69
2023/04/25 02:13:26;;;;;;;3.20;2.87;;;;;;;13.33;50.34;97157.72;8284693;28;20234;-69
2023/04/25 02:17:31;;;;;;;2.90;2.70;;;;;;;13.39;49.94;97155.56;8284181;28;20291;-69
2023/04/25 02:21:35;;;;;;;2.97;2.70;;;;;;;13.21;50.00;97161.97;8284175;28;20291;-69
2023/04/25 02:25:38;;;;;;;3.10;2.90;;;;;;;13.24;49.95;97147.00;8283755;28;20297;-69
2023/04/25 02:29:42;;;;;;;3.17;2.90;;;;;;;13.34;49.95;97149.81;8283883;28;20236;-69
2023/04/25 02:33:45;;;;;;;3.30;3.00;;;;;;;13.33;50.08;97148.19;8284034;28;20227;-69
2023/04/25 02:37:48;;;;;;;3.40;3.00;;;;;;;13.29;49.92;97144.91;8284086;28;20254;-69
2023/04/25 02:41:51;;;;;;;3.30;3.00;;;;;;;13.29;49.90;97144.91;8283741;28;20413;-69
2023/04/25 02:45:55;;;;;;;3.17;2.93;;;;;;;13.29;50.26;97139.72;8283632;28;20231;-69
2023/04/25 02:49:57;;;;;;;3.93;3.33;;;;;;;13.19;50.06;97133.47;8283069;28;20242;-69
2023/04/25 02:54:00;;;;;;;3.63;3.43;;;;;;;13.22;50.11;97137.66;8282692;28;20228;-69
2023/04/25 02:58:03;;;;;;;3.60;3.30;;;;;;;13.21;50.03;97134.22;8282329;28;20233;-69
2023/04/25 03:02:07;;;;;;;3.97;3.60;;;;;;;13.26;49.97;97131.28;8282764;28;20423;-69
2023/04/25 03:06:11;;;;;;;3.60;3.30;;;;;;;13.06;50.83;97132.63;8282559;28;20235;-69
2023/04/25 03:10:13;;;;;;;4.00;3.70;;;;;;;12.99;50.74;97116.63;8282170;28;20243;-69
2023/04/25 03:14:16;;;;;;;4.17;3.87;;;;;;;13.06;50.76;97130.03;8282036;28;20223;-69
2023/04/25 03:18:20;;;;;;;4.10;3.53;;;;;;;12.97;51.22;97133.28;8281237;28;20537;-70
2023/04/25 03:22:23;;;;;;;3.87;3.57;;;;;;;12.96;51.09;97132.44;8282137;28;20234;-69
2023/04/25 03:26:26;;;;;;;3.93;3.63;;;;;;;12.95;51.14;97128.19;8282009;28;20539;-70
2023/04/25 03:30:29;;;;;;;4.30;3.90;;;;;;;12.96;51.00;97119.44;8281372;28;20592;-69
2023/04/25 03:34:33;;;;;;;4.00;3.70;;;;;;;12.92;51.04;97117.97;8281835;28;20235;-69
2023/04/25 03:38:36;;;;;;;4.63;4.33;;;;;;;12.83;51.27;97126.38;8281212;28;20602;-69
2023/04/25 03:42:39;;;;;;;4.70;4.30;;;;;;;12.89;51.29;97126.81;8280938;28;20277;-69
2023/04/25 03:46:42;;;;;;;5.00;4.40;;;;;;;12.58;52.01;97129.78;8281036;28;20227;-69
2023/04/25 03:50:46;;;;;;;4.23;3.93;;;;;;;12.89;51.58;97128.59;8280856;28;20234;-69
2023/04/25 03:54:49;;;;;;;4.80;4.30;;;;;;;12.79;52.22;97133.56;8280628;28;20246;-69
2023/04/25 03:58:52;;;;;;;4.43;3.83;;;;;;;12.59;52.13;97134.06;8280670;28;20275;-69
2023/04/25 04:02:54;;;;;;;4.20;3.83;;;;;;;12.69;52.21;97122.94;8280400;28;20227;-68
2023/04/25 04:06:59;;;;;;;4.43;4.03;;;;;;;12.69;51.85;97129.91;8280323;28;20244;-68
2023/04/25 04:11:02;;;;;;;4.23;3.93;;;;;;;12.61;52.19;97142.56;8279948;28;20231;-68
2023/04/25 04:15:06;;;;;;;4.10;3.80;;;;;;;12.88;51.66;97135.53;8279790;28;20230;-69
2023/04/25 04:19:09;;;;;;;4.30;3.90;;;;;;;12.79;51.77;97138.75;8280346;28;20242;-69
2023/04/25 04:23:14;;;;;;;4.13;3.83;;;;;;;12.69;52.29;97138.53;8280487;28;20238;-69
2023/04/25 04:27:17;;;;;;;3.90;3.60;;;;;;;12.71;51.99;97138.44;8280041;28;20226;-69
2023/04/25 04:31:23;;;;;;;3.70;3.40;;;;;;;12.70;52.22;97141.97;8279115;28;20235;-71
2023/04/25 04:35:26;;;;;;;4.17;3.87;;;;;;;12.56;52.75;97142.88;8279325;28;20234;-70
2023/04/25 04:39:35;;;;;;;3.73;3.43;;;;;;;12.62;52.66;97132.09;8279197;28;20227;-70
2023/04/25 04:43:39;;;;;;;3.87;3.57;;;;;;;12.78;52.54;97144.06;8279228;28;20246;-69
2023/04/25 04:47:42;;;;;;;3.70;3.40;;;;;;;12.60;52.56;97144.31;8279557;28;20238;-69
2023/04/25 04:51:45;;;;;;;3.50;3.20;;;;;;;12.49;53.35;97147.63;8279328;28;20254;-69
2023/04/25 04:55:49;;;;;;;3.23;3.03;;;;;;;12.37;52.95;97160.56;8279304;28;20234;-68
2023/04/25 04:59:53;;;;;;;3.70;3.27;;;;;;;12.55;53.25;97162.00;8279234;28;20234;-69
2023/04/25 05:03:59;;;;;;;3.53;3.33;;;;;;;12.55;52.98;97171.56;8279443;28;20235;-68
2023/04/25 05:08:03;;;;;;;3.20;3.00;;;;;;;12.85;52.25;97168.69;8280093;28;20431;-68
2023/04/25 05:12:10;;;;;;;3.07;2.77;;;;;;;12.86;52.08;97168.59;8279735;28;20318;-68
2023/04/25 05:16:13;;;;;;;3.47;3.17;;;;;;;12.62;52.58;97165.00;8279769;28;20239;-69
2023/04/25 05:20:18;;;;;;;2.87;2.60;;;;;;;12.69;53.14;97169.69;8279841;28;20297;-69
2023/04/25 05:24:21;;;;;;;3.10;2.80;;;;;;;12.64;52.71;97166.59;8279609;28;20309;-69
2023/04/25 05:28:25;;;;;;;3.43;3.10;;;;;;;12.88;52.45;97171.91;8279711;28;20230;-69
2023/04/25 05:32:31;;;;;;;3.40;3.20;;;;;;;12.89;52.72;97176.19;8279304;28;20238;-68
2023/04/25 05:36:34;;;;;;;3.70;3.40;;;;;;;12.78;52.89;97181.25;8279148;28;20235;-68
2023/04/25 05:40:36;;;;;;;3.73;3.50;;;;;;;12.33;53.38;97163.34;8279115;28;20238;-68
2023/04/25 05:44:41;;;;;;;3.80;3.50;;;;;;;12.78;53.09;97185.63;8283319;28;20231;-67
2023/04/25 05:48:44;;;;;;;3.77;3.47;;;;;;;12.65;53.17;97189.03;8285595;28;20231;-68
2023/04/25 05:52:46;;;;;;;4.43;4.07;;;;;;;12.61;54.07;97192.75;8285402;28;20250;-68
2023/04/25 05:56:49;;;;;;;4.50;4.10;;;;;;;12.88;53.22;97191.88;8285254;28;20315;-68
2023/04/25 06:00:54;;;;;;;3.90;3.60;;;;;;;13.01;52.77;97200.53;8284618;28;20227;-68
2023/04/25 06:04:57;;;;;;;3.97;3.57;;;;;;;12.85;53.44;97195.53;8284845;28;20323;-68
2023/04/25 06:09:00;;;;;;;3.70;3.50;;;;;;;12.92;53.04;97193.34;8284893;28;20250;-69
2023/04/25 06:13:03;;;;;;;4.13;3.83;;;;;;;13.07;52.95;97200.13;8284744;28;20318;-68
2023/04/25 06:17:08;;;;;;;4.40;4.10;;;;;;;12.85;53.53;97198.13;8284099;28;20230;-68
2023/04/25 06:21:11;;;;;;;4.60;4.20;;;;;;;13.00;53.57;97198.03;8284330;28;20227;-68
2023/04/25 06:25:13;;;;;;;4.80;4.50;;;;;;;13.02;52.82;97215.22;8284305;28;20535;-68
2023/04/25 06:29:16;;;;;;;5.13;4.73;;;;;;;13.04;52.85;97202.94;8283950;28;20235;-69
2023/04/25 06:33:21;;;;;;;5.70;5.20;;;;;;;12.97;52.97;97212.06;8283132;28;20515;-68
2023/04/25 06:37:24;;;;;;;5.90;5.40;;;;;;;13.02;53.33;97206.56;8284038;28;20231;-69
2023/04/25 06:41:29;;;;;;;4.50;4.10;;;;;;;12.18;54.45;97195.50;8283554;28;20234;-69
2023/04/25 06:45:31;;;;;;;4.60;4.07;;;;;;;12.25;54.35;97211.53;8283451;28;20241;-69
2023/04/25 06:49:36;;;;;;;3.97;3.60;;;;;;;12.27;54.17;97226.06;8283393;28;20231;-69
2023/04/25 06:53:39;;;;;;;3.07;2.83;;;;;;;12.49;54.06;97224.72;8282512;28;20419;-69
2023/04/25 06:57:42;;;;;;;3.27;2.90;;;;;;;11.58;55.54;97232.06;8283605;28;20234;-69
2023/04/25 07:01:45;;;;;;;4.10;2.90;;;;;;;12.33;53.15;97230.03;8283108;28;20495;-69
2023/04/25 07:05:50;;;;;;;4.47;3.00;;;;;;;12.25;52.65;97237.47;8282836;28;20238;-69
2023/04/25 07:09:53;;;;;;;3.90;3.27;;;;;;;12.44;52.62;97237.97;8282778;28;20231;-68
2023/04/25 07:13:56;;;;;;;5.27;3.67;;;;;;;12.67;52.83;97231.31;8282464;28;20565;-69
2023/04/25 07:17:59;;;;;;;3.33;3.00;;;;;;;12.71;52.67;97227.59;8282641;28;20223;-68
2023/04/25 07:22:03;;;;;;;2.90;2.70;;;;;;;12.69;51.46;97231.22;8282604;28;20389;-69
2023/04/25 07:26:06;;;;;;;5.57;3.33;;;;;;;12.82;51.56;97232.09;8282511;28;20311;-69
2023/04/25 07:30:09;;;;;;;3.17;2.80;;;;;;;12.87;51.73;97217.03;8282240;28;20242;-69
2023/04/25 07:34:12;;;;;;;3.73;2.80;;;;;;;12.97;52.21;97232.84;8282112;28;20269;-70
2023/04/25 07:38:16;;;;;;;2.53;2.33;;;;;;;13.01;51.03;97243.88;8282414;28;20489;-70
2023/04/25 07:42:19;;;;;;;3.23;2.93;;;;;;;13.18;51.34;97238.41;8281464;28;20227;-70
2023/04/25 07:46:22;;;;;;;3.43;2.30;;;;;;;13.33;50.54;97247.00;8281734;28;20227;-71
2023/04/25 07:50:27;;;;;;;2.10;1.90;;;;;;;13.19;49.83;97255.66;8281646;28;20231;-70
2023/04/25 07:54:31;;;;;;;2.87;2.40;;;;;;;13.30;49.22;97249.78;8281304;28;20238;-70
2023/04/25 07:58:34;;;;;;;3.30;2.50;;;;;;;13.31;50.49;97243.66;8280911;28;20223;-70
2023/04/25 08:02:37;;;;;;;3.03;2.33;;;;;;;13.38;50.13;97251.88;8270629;28;20259;-70
2023/04/25 08:06:40;;;;;;;2.93;1.73;;;;;;;15.90;67.75;97256.44;8280095;28;20303;-69
2023/04/25 08:10:44;;;;;;;2.23;2.03;;;;;;;16.00;58.43;97254.75;8280578;28;20294;-69
2023/04/25 08:14:47;;;;;;;4.67;2.00;;;;;;;16.57;51.43;97260.75;8280367;28;20245;-70
2023/04/25 08:18:51;;;;;;;2.43;2.20;;;;;;;17.01;49.81;97261.56;8281015;28;20404;-69
2023/04/25 08:22:54;;;;;;;4.23;2.47;;;;;;;16.73;49.71;97271.63;8280912;28;20479;-69
2023/04/25 08:26:58;;;;;;;4.30;3.43;;;;;;;16.05;46.08;97268.31;8280733;28;20318;-70
2023/04/25 08:31:02;;;;;;;4.53;4.13;;;;;;;14.78;49.07;97284.69;8280684;28;20407;-70
2023/04/25 08:35:05;;;;;;;5.00;4.50;;;;;;;14.91;49.37;97291.59;8280191;28;20227;-70
2023/04/25 08:39:08;;;;;;;5.33;4.17;;;;;;;15.04;52.55;97295.81;8280379;28;20235;-70
2023/04/25 08:43:14;;;;;;;4.67;3.80;;;;;;;14.81;49.73;97294.03;8280324;28;20537;-70
2023/04/25 08:47:19;;;;;;;4.73;3.87;;;;;;;14.92;49.94;97296.72;8279469;28;20238;-70
2023/04/25 08:51:24;;;;;;;4.37;3.97;;;;;;;14.98;51.01;97293.69;8279823;28;20529;-69
2023/04/25 08:55:31;;;;;;;4.10;3.70;;;;;;;15.25;49.89;97296.03;8279714;28;20237;-69
2023/04/25 08:59:35;;;;;;;3.50;3.20;;;;;;;16.65;45.92;97296.72;8279748;28;20256;-68
2023/04/25 09:03:40;;;;;;;4.03;3.63;;;;;;;16.70;46.46;97291.97;8279581;28;20428;-69
2023/04/25 09:07:43;;;;;;;3.63;3.23;;;;;;;17.46;44.61;97294.53;8278800;28;20241;-69
2023/04/25 09:11:46;;;;;;;3.90;3.50;;;;;;;18.10;41.20;97289.13;8279796;28;20232;-69
2023/04/25 09:15:52;;;;;;;3.53;3.23;;;;;;;18.71;40.94;97290.81;8279451;28;20223;-69
2023/04/25 09:19:55;;;;;;;3.93;3.53;;;;;;;18.23;40.98;97294.16;8279233;28;20245;-68
2023/04/25 09:23:59;;;;;;;3.00;2.70;;;;;;;18.32;40.79;97292.53;8278914;28;20232;-67
2023/04/25 09:28:05;;;;;;;4.07;2.80;;;;;;;19.92;37.01;97297.44;8279678;28;20244;-69
2023/04/25 09:32:18;;;;;;;3.63;2.97;;;;;;;17.87;39.74;97303.38;8279306;28;20227;-69
2023/04/25 09:36:27;;;;;;;2.33;2.10;;;;;;;18.18;36.86;97296.31;8278584;28;20405;-69
2023/04/25 09:40:31;;;;;;;3.90;2.50;;;;;;;19.30;35.10;97315.34;8279632;28;20495;-68
2023/04/25 09:44:34;;;;;;;4.20;2.33;;;;;;;16.81;38.65;97316.31;8279236;28;20230;-69
2023/04/25 09:48:38;;;;;;;2.63;2.07;;;;;;;18.61;35.01;97318.00;8279337;28;20398;-69
2023/04/25 09:52:41;;;;;;;2.37;1.77;;;;;;;18.01;35.15;97317.91;8279067;28;20235;-69
2023/04/25 09:56:44;;;;;;;2.53;2.10;;;;;;;17.98;34.60;97251.72;8278961;28;20222;-68
2023/04/25 10:00:47;;;;;;;3.87;1.90;;;;;;;19.61;33.11;97312.56;8279006;28;20226;-68
2023/04/25 10:04:56;;;;;;;3.47;1.80;;;;;;;18.22;33.61;97239.25;8278904;28;20437;-69
2023/04/25 10:09:00;;;;;;;2.07;1.83;;;;;;;19.08;33.27;97310.38;8278477;28;20234;-69
2023/04/25 10:13:06;;;;;;;4.20;2.17;;;;;;;18.57;33.00;97309.56;8278329;28;20554;-69
2023/04/25 10:17:11;;;;;;;3.50;1.70;;;;;;;18.07;34.37;97327.88;8277927;28;20230;-69
2023/04/25 10:21:16;;;;;;;3.50;2.10;;;;;;;17.06;34.21;97323.97;8278133;28;20502;-70
2023/04/25 10:25:19;;;;;;;2.17;1.77;;;;;;;18.06;35.27;97313.13;8261498;28;20219;-69
2023/04/25 10:29:23;;;;;;;2.43;1.53;;;;;;;18.04;33.04;97318.47;8281973;28;20227;-69
2023/04/25 10:33:36;;;;;;;2.63;1.53;;;;;;;17.84;33.90;97308.81;8284439;28;20538;-69
2023/04/25 10:37:57;;;;;;;2.23;1.60;;;;;;;16.40;35.00;97319.56;8284345;28;20232;-69
2023/04/25 10:42:03;;;;;;;3.10;1.90;;;;;;;16.23;36.30;97323.50;8284199;28;20235;-69
2023/04/25 10:46:24;;;;;;;2.10;1.60;;;;;;;16.42;36.76;97328.94;8283916;28;20498;-68
2023/04/25 10:50:38;;;;;;;3.10;1.50;;;;;;;16.53;36.58;97329.91;8283591;28;20238;-69
2023/04/25 10:54:47;;;;;;;1.57;1.37;;;;;;;16.75;36.06;97322.03;8284217;28;20223;-69
2023/04/25 10:58:50;;;;;;;2.07;1.10;;;;;;;16.19;34.57;97333.34;8284173;28;20245;-69
2023/04/25 11:02:59;;;;;;;2.27;1.20;;;;;;;16.20;36.48;97345.47;8283310;28;20513;-69
2023/04/25 11:07:22;;;;;;;1.90;1.40;;;;;;;15.54;37.63;97344.38;8283200;28;20240;-69
2023/04/25 11:11:26;;;;;;;1.20;1.10;;;;;;;15.60;37.73;97351.75;8283153;28;20231;-69
2023/04/25 11:15:29;;;;;;;1.00;0.90;;;;;;;15.64;36.86;97355.78;8283229;28;20565;-70
2023/04/25 11:19:32;;;;;;;1.00;1.00;;;;;;;16.14;35.64;97343.31;8282843;28;20320;-70
2023/04/25 11:23:38;;;;;;;1.70;1.20;;;;;;;15.62;35.76;97361.13;8283257;28;20257;-69
2023/04/25 11:27:52;;;;;;;0.93;0.80;;;;;;;17.17;34.16;97348.34;8282919;28;20227;-69
2023/04/25 11:31:56;;;;;;;2.93;1.10;;;;;;;16.09;35.23;97353.31;8282560;28;20254;-69
2023/04/25 11:36:01;;;;;;;1.30;1.00;;;;;;;16.46;34.56;97340.00;8282453;28;20286;-69
2023/04/25 11:40:06;;;;;;;1.83;1.20;;;;;;;15.96;35.00;97361.22;8281968;28;20227;-69
2023/04/25 11:44:16;;;;;;;1.67;1.10;;;;;;;16.07;36.59;97360.44;8282052;28;20234;-69
2023/04/25 11:48:20;;;;;;;1.30;1.20;;;;;;;16.60;35.00;97360.66;8281146;28;20258;-70
2023/04/25 11:52:39;;;;;;;0.80;0.80;;;;;;;15.88;35.59;97347.09;8281591;28;20235;-69
2023/04/25 11:56:43;;;;;;;1.23;1.10;;;;;;;15.83;35.17;97379.59;8281905;28;20472;-69
2023/04/25 12:00:47;;;;;;;1.30;1.20;;;;;;;16.61;35.58;97372.75;8281730;28;20406;-69
2023/04/25 12:04:53;;;;;;;1.40;1.30;;;;;;;16.05;35.23;97375.38;8281118;28;20231;-70
2023/04/25 12:09:04;;;;;;;1.57;0.97;;;;;;;15.86;35.87;97381.16;8281424;28;20227;-70
2023/04/25 12:13:19;;;;;;;1.30;1.20;;;;;;;15.52;36.04;97385.41;8280870;28;20522;-70
2023/04/25 12:17:23;;;;;;;1.53;1.23;;;;;;;16.07;36.02;97383.94;8280969;28;20231;-70
2023/04/25 12:21:30;;;;;;;1.17;1.10;;;;;;;15.54;36.59;97386.97;8281232;28;20432;-70
2023/04/25 12:25:38;;;;;;;1.20;1.10;;;;;;;15.25;37.20;97395.13;8281109;28;20383;-69
2023/04/25 12:29:41;;;;;;;1.93;1.50;;;;;;;15.05;37.44;97401.78;8281115;28;20258;-69
2023/04/25 12:33:54;;;;;;;6.00;1.87;;;;;;;15.10;38.11;97400.63;8280410;28;20242;-69
2023/04/25 12:37:57;;;;;;;1.83;1.53;;;;;;;15.20;36.96;97396.41;8280447;28;20222;-69
2023/04/25 12:41:59;;;;;;;1.80;1.60;;;;;;;14.57;37.74;97393.88;8280439;28;20227;-69
2023/04/25 12:46:03;;;;;;;1.80;1.70;;;;;;;15.65;36.77;97407.06;8279965;28;20234;-70
2023/04/25 12:50:08;;;;;;;3.07;1.50;;;;;;;15.17;36.76;97414.88;8280362;28;20227;-70
2023/04/25 12:54:11;;;;;;;1.80;1.60;;;;;;;15.05;36.29;97409.59;8279515;28;20281;-70
2023/04/25 12:58:14;;;;;;;1.70;1.60;;;;;;;14.64;37.01;97413.38;8280124;28;20256;-69
2023/04/25 13:02:17;;;;;;;1.60;1.50;;;;;;;14.98;37.40;97415.38;8279801;28;20253;-69
2023/04/25 13:06:22;;;;;;;2.27;1.73;;;;;;;15.33;38.17;97420.69;8278917;28;20244;-70
2023/04/25 13:10:25;;;;;;;1.70;1.60;;;;;;;15.39;36.87;97422.84;8279085;28;20250;-70
2023/04/25 13:14:27;;;;;;;2.17;1.73;;;;;;;14.18;39.15;97363.56;8279424;28;20242;-69
2023/04/25 13:18:30;;;;;;;2.07;1.57;;;;;;;14.68;39.61;97395.75;8279480;28;20238;-70
2023/04/25 13:22:36;;;;;;;2.47;1.97;;;;;;;14.27;39.35;97428.06;8278772;28;20362;-70
2023/04/25 13:26:39;;;;;;;2.33;1.87;;;;;;;14.61;39.27;97438.81;8279256;28;20229;-70
2023/04/25 13:30:43;;;;;;;2.10;2.00;;;;;;;14.76;38.52;97436.91;8279314;28;20222;-70
2023/04/25 13:34:46;;;;;;;1.83;1.70;;;;;;;15.00;38.25;97444.75;8278781;28;20261;-70
2023/04/25 13:38:50;;;;;;;2.10;1.90;;;;;;;14.88;38.57;97445.63;8279127;28;20520;-69
2023/04/25 13:42:53;;;;;;;2.37;2.17;;;;;;;15.66;37.01;97455.69;8279530;28;20253;-69
2023/04/25 13:46:56;;;;;;;2.73;2.13;;;;;;;15.47;37.75;97460.59;8279221;28;20361;-69
2023/04/25 13:50:59;;;;;;;2.77;2.17;;;;;;;15.07;37.68;97456.44;8279160;28;20260;-69
2023/04/25 13:55:06;;;;;;;4.20;1.93;;;;;;;14.74;38.77;97465.69;8279256;28;20231;-70
2023/04/25 13:59:09;;;;;;;4.30;2.33;;;;;;;14.34;39.19;97464.94;8278753;28;20234;-70
2023/04/25 14:03:12;;;;;;;2.60;2.40;;;;;;;13.90;40.01;97464.38;8280381;28;20234;-70
2023/04/25 14:07:16;;;;;;;5.00;2.47;;;;;;;14.20;40.55;97476.28;8284176;28;20241;-69
2023/04/25 14:11:21;;;;;;;3.00;2.50;;;;;;;13.87;41.19;97480.19;8284424;28;20517;-70
2023/04/25 14:15:25;;;;;;;3.30;2.60;;;;;;;14.18;40.54;97457.31;8284754;28;20238;-69
2023/04/25 14:19:28;;;;;;;3.30;2.63;;;;;;;14.21;40.85;97488.38;8284039;28;20236;-69
2023/04/25 14:23:31;;;;;;;2.57;2.37;;;;;;;14.21;40.48;97476.16;8283862;28;20301;-69
2023/04/25 14:27:35;;;;;;;3.33;2.10;;;;;;;14.74;47.01;97477.88;8284572;28;20320;-69
2023/04/25 14:31:39;;;;;;;2.70;2.50;;;;;;;13.93;39.59;97481.53;8284243;28;20528;-69
2023/04/25 14:35:42;;;;;;;4.13;2.43;;;;;;;14.06;39.65;97490.22;8283831;28;20228;-69
2023/04/25 14:39:44;;;;;;;3.30;2.20;;;;;;;14.22;39.46;97487.41;8284059;28;20227;-68
2023/04/25 14:43:49;;;;;;;2.20;2.00;;;;;;;14.04;39.85;97481.66;8284106;28;20288;-69
2023/04/25 14:47:55;;;;;;;2.40;2.20;;;;;;;14.44;39.22;97490.25;8283614;28;20232;-69
2023/04/25 14:51:58;;;;;;;2.50;2.20;;;;;;;13.78;40.58;97506.78;8283263;28;20225;-70
2023/04/25 14:56:01;;;;;;;3.70;2.73;;;;;;;13.59;41.07;97512.34;8283171;28;20252;-68
2023/04/25 15:00:09;;;;;;;2.53;2.33;;;;;;;13.31;41.17;97490.69;8283171;28;20236;-69
2023/04/25 15:04:12;;;;;;;2.93;2.53;;;;;;;13.58;41.68;97513.28;8282988;28;20239;-69
2023/04/25 15:08:15;;;;;;;2.50;2.13;;;;;;;13.95;41.09;97516.13;8282476;28;20253;-69
2023/04/25 15:12:18;;;;;;;3.43;2.67;;;;;;;14.20;40.94;97521.41;8282144;28;20426;-70
2023/04/25 15:16:23;;;;;;;3.10;2.50;;;;;;;14.38;40.14;97514.13;8271256;28;20434;-69
2023/04/25 15:20:26;;;;;;;2.37;2.17;;;;;;;14.21;39.38;97520.44;8282462;28;20244;-70
2023/04/25 15:24:32;;;;;;;3.83;2.20;;;;;;;14.78;38.54;97523.66;8282202;28;20414;-69
2023/04/25 15:28:34;;;;;;;3.50;2.07;;;;;;;14.67;38.81;97526.97;8281848;28;20513;-69
2023/04/25 15:32:39;;;;;;;2.63;2.43;;;;;;;14.93;38.35;97538.25;8282004;28;20552;-69
2023/04/25 15:36:41;;;;;;;4.10;2.27;;;;;;;14.78;38.92;97537.50;8281711;28;20521;-69
2023/04/25 15:40:45;;;;;;;2.50;2.20;;;;;;;15.40;38.46;97543.66;8281504;28;20241;-68
2023/04/25 15:44:47;;;;;;;3.00;2.40;;;;;;;14.85;38.86;97540.53;8281346;28;20229;-69
2023/04/25 15:48:51;;;;;;;2.43;2.23;;;;;;;14.75;39.08;97537.72;8281300;28;20238;-69
2023/04/25 15:52:54;;;;;;;2.50;2.30;;;;;;;15.16;38.87;97544.47;8281489;28;20231;-69
2023/04/25 15:56:57;;;;;;;2.50;2.10;;;;;;;15.37;38.55;97543.91;8281554;28;20542;-70
2023/04/25 16:01:00;;;;;;;3.53;2.20;;;;;;;14.96;39.04;97537.19;8281632;28;20412;-69
2023/04/25 16:05:05;;;;;;;2.13;1.93;;;;;;;14.86;39.62;97550.84;8281185;28;20443;-69
2023/04/25 16:09:09;;;;;;;2.50;2.10;;;;;;;14.95;38.79;97543.34;8281268;28;20257;-69
2023/04/25 16:13:12;;;;;;;2.47;2.10;;;;;;;14.05;39.39;97551.88;8281333;28;20230;-70
2023/04/25 16:17:15;;;;;;;4.97;2.30;;;;;;;14.11;39.24;97555.84;8280689;28;20229;-70
2023/04/25 16:21:19;;;;;;;2.97;2.20;;;;;;;14.17;39.14;97557.22;8280464;28;20486;-71
2023/04/25 16:25:23;;;;;;;2.77;2.00;;;;;;;14.06;39.52;97545.72;8280222;28;20226;-70
2023/04/25 16:29:26;;;;;;;3.03;1.90;;;;;;;14.24;39.13;97558.47;8280901;28;20543;-70
2023/04/25 16:33:30;;;;;;;3.40;2.33;;;;;;;14.31;39.07;97554.53;8280968;28;20233;-70
2023/04/25 16:37:35;;;;;;;3.90;1.87;;;;;;;14.44;38.20;97557.16;8280934;28;20509;-70
2023/04/25 16:41:37;;;;;;;1.90;1.60;;;;;;;14.05;37.42;97559.69;8280506;28;20524;-70
2023/04/25 16:45:40;;;;;;;5.43;2.00;;;;;;;13.88;37.11;97560.78;8280439;28;20236;-70
2023/04/25 16:49:43;;;;;;;4.27;2.20;;;;;;;14.22;37.37;97562.94;8280557;28;20224;-71
2023/04/25 16:53:48;;;;;;;3.60;2.17;;;;;;;14.08;37.09;97562.06;8280275;28;20244;-70
2023/04/25 16:57:51;;;;;;;4.87;1.80;;;;;;;13.84;37.27;97572.31;8280336;28;20229;-70
2023/04/25 17:01:54;;;;;;;2.57;1.60;;;;;;;13.83;37.78;97575.84;8280291;28;20227;-70
2023/04/25 17:05:56;;;;;;;2.63;1.60;;;;;;;13.99;37.72;97578.31;8280329;28;20239;-69
2023/04/25 17:10:01;;;;;;;1.70;1.60;;;;;;;14.22;37.69;97589.84;8279843;28;20519;-69
2023/04/25 17:14:04;;;;;;;3.87;1.70;;;;;;;14.12;38.03;97593.13;8278887;28;20232;-69
2023/04/25 17:18:07;;;;;;;2.10;1.60;;;;;;;13.85;37.96;97581.78;8279185;28;20246;-68
2023/04/25 17:22:10;;;;;;;3.50;1.70;;;;;;;14.22;38.11;97592.44;8279161;28;20229;-70
2023/04/25 17:26:15;;;;;;;3.60;1.60;;;;;;;14.14;38.29;97599.91;8279426;28;20233;-69
2023/04/25 17:30:18;;;;;;;3.93;2.13;;;;;;;14.22;38.19;97602.00;8278323;28;20290;-70
2023/04/25 17:34:21;;;;;;;3.40;1.87;;;;;;;14.16;38.50;97597.19;8278978;28;20463;-69
2023/04/25 17:38:23;;;;;;;3.47;2.07;;;;;;;14.03;38.50;97591.94;8281206;28;20229;-69
2023/04/25 17:42:28;;;;;;;4.70;2.40;;;;;;;14.17;38.86;97615.34;8286034;28;20244;-68
2023/04/25 17:46:31;;;;;;;2.50;1.73;;;;;;;14.17;38.64;97619.72;8285451;28;20240;-69
2023/04/25 17:50:33;;;;;;;3.27;1.90;;;;;;;13.88;38.83;97625.00;8285613;28;20243;-69
2023/04/25 17:54:36;;;;;;;5.37;2.00;;;;;;;14.01;39.00;97628.50;8285283;28;20439;-69
2023/04/25 17:58:41;;;;;;;3.53;1.83;;;;;;;13.88;38.81;97606.78;8285067;28;20259;-70
2023/04/25 18:02:46;;;;;;;3.17;1.80;;;;;;;13.89;38.78;97639.69;8285149;28;20233;-72
2023/04/25 18:06:49;;;;;;;4.50;2.07;;;;;;;13.93;38.94;97629.91;8285036;28;20346;-70
2023/04/25 18:10:52;;;;;;;6.40;2.10;;;;;;;13.84;38.88;97624.38;8285120;28;20239;-69
2023/04/25 18:14:56;;;;;;;4.40;1.93;;;;;;;13.86;39.03;97638.13;8285016;28;20406;-69
2023/04/25 18:19:04;;;;;;;3.07;1.80;;;;;;;13.70;39.26;97642.59;8284911;28;20240;-69
2023/04/25 18:23:07;;;;;;;5.40;2.00;;;;;;;13.81;38.76;97636.75;8284875;28;20248;-70
2023/04/25 18:27:10;;;;;;;5.07;2.10;;;;;;;13.83;38.37;97646.09;8284819;28;20257;-70
2023/04/25 18:31:16;;;;;;;3.23;1.97;;;;;;;13.74;38.83;97651.88;8284718;28;20294;-71
2023/04/25 18:35:19;;;;;;;5.63;2.30;;;;;;;13.68;38.61;97654.88;8283061;28;20225;-70
2023/04/25 18:39:22;;;;;;;4.43;2.20;;;;;;;13.55;38.86;97652.19;8283869;28;20235;-69
2023/04/25 18:43:26;;;;;;;7.63;2.60;;;;;;;13.65;39.06;97683.66;8284060;28;20303;-70
2023/04/25 18:47:31;;;;;;;5.73;2.30;;;;;;;13.64;38.86;97689.81;8284051;28;20232;-70
2023/04/25 18:51:35;;;;;;;6.70;2.50;;;;;;;13.67;39.20;97700.06;8283411;28;20231;-70
2023/04/25 18:55:39;;;;;;;5.63;2.40;;;;;;;13.59;38.92;97689.25;8272575;28;20254;-70
2023/04/25 18:59:44;;;;;;;6.63;2.40;;;;;;;13.65;38.75;97704.50;8283114;28;20232;-69
2023/04/25 19:03:54;;;;;;;3.47;2.00;;;;;;;13.77;38.83;97719.38;8282860;28;20234;-69
2023/04/25 19:07:58;;;;;;;6.00;2.23;;;;;;;13.64;38.95;97715.84;8283046;28;20239;-68
2023/04/25 19:12:02;;;;;;;3.70;2.20;;;;;;;13.62;39.17;97728.94;8283046;28;20541;-69